sensor_id;sensor_type;location;lat;lon;timestamp;temperature;humidity
10472;DHT22;5283;48.876;8.962;2022-12-07T00:02:00;3.10;99.90
10472;DHT22;5283;48.876;8.962;2022-12-07T00:04:27;3.10;99.90
10472;DHT22;5283;48.876;8.962;2022-12-07T00:06:53;3.10;99.90
10472;DHT22;5283;48.876;8.962;2022-12-07T00:09:21;3.00;99.90
10472;DHT22;5283;48.876;8.962;2022-12-07T00:11:49;3.00;99.90
10472;DHT22;5283;48.876;8.962;2022-12-07T00:14:17;2.90;99.90
10472;DHT22;5283;48.876;8.962;2022-12-07T00:16:44;2.90;99.90
10472;DHT22;5283;48.876;8.962;2022-12-07T00:19:13;2.90;99.90
10472;DHT22;5283;48.876;8.962;2022-12-07T00:21:40;2.90;99.90
10472;DHT22;5283;48.876;8.962;2022-12-07T00:24:06;2.90;99.90
10472;DHT22;5283;48.876;8.962;2022-12-07T00:26:35;2.90;99.90
10472;DHT22;5283;48.876;8.962;2022-12-07T00:29:05;2.90;99.90
10472;DHT22;5283;48.876;8.962;2022-12-07T00:31:35;2.90;99.90
10472;DHT22;5283;48.876;8.962;2022-12-07T00:34:06;2.80;99.90
10472;DHT22;5283;48.876;8.962;2022-12-07T00:36:33;2.80;99.90
10472;DHT22;5283;48.876;8.962;2022-12-07T00:39:00;2.70;99.90
10472;DHT22;5283;48.876;8.962;2022-12-07T00:41:28;2.70;99.90
10472;DHT22;5283;48.876;8.962;2022-12-07T00:43:55;2.60;99.90
10472;DHT22;5283;48.876;8.962;2022-12-07T00:46:22;2.50;99.90
10472;DHT22;5283;48.876;8.962;2022-12-07T00:48:50;2.50;99.90
10472;DHT22;5283;48.876;8.962;2022-12-07T00:51:20;2.40;99.90
10472;DHT22;5283;48.876;8.962;2022-12-07T00:53:47;2.40;99.90
10472;DHT22;5283;48.876;8.962;2022-12-07T00:56:24;2.40;99.90
10472;DHT22;5283;48.876;8.962;2022-12-07T00:58:53;2.40;99.90
10472;DHT22;5283;48.876;8.962;2022-12-07T01:01:20;2.40;99.90
10472;DHT22;5283;48.876;8.962;2022-12-07T01:03:47;2.40;99.90
10472;DHT22;5283;48.876;8.962;2022-12-07T01:06:15;2.40;99.90
10472;DHT22;5283;48.876;8.962;2022-12-07T01:08:43;2.40;99.90
10472;DHT22;5283;48.876;8.962;2022-12-07T01:11:13;2.40;99.90
10472;DHT22;5283;48.876;8.962;2022-12-07T01:13:40;2.50;99.90
10472;DHT22;5283;48.876;8.962;2022-12-07T01:16:09;2.40;99.90
10472;DHT22;5283;48.876;8.962;2022-12-07T01:18:36;2.50;99.90
10472;DHT22;5283;48.876;8.962;2022-12-07T01:23:35;2.40;99.90
10472;DHT22;5283;48.876;8.962;2022-12-07T01:26:04;2.40;99.90
10472;DHT22;5283;48.876;8.962;2022-12-07T01:28:32;2.40;99.90
10472;DHT22;5283;48.876;8.962;2022-12-07T01:31:01;2.40;99.90
10472;DHT22;5283;48.876;8.962;2022-12-07T01:33:30;2.40;99.90
10472;DHT22;5283;48.876;8.962;2022-12-07T01:36:21;2.40;99.90
10472;DHT22;5283;48.876;8.962;2022-12-07T01:38:50;2.40;99.90
10472;DHT22;5283;48.876;8.962;2022-12-07T01:41:20;2.40;99.90
10472;DHT22;5283;48.876;8.962;2022-12-07T01:44:26;2.40;99.90
10472;DHT22;5283;48.876;8.962;2022-12-07T01:46:55;2.50;99.90
10472;DHT22;5283;48.876;8.962;2022-12-07T01:49:30;2.50;99.90
10472;DHT22;5283;48.876;8.962;2022-12-07T01:54:33;2.60;99.90
10472;DHT22;5283;48.876;8.962;2022-12-07T01:57:01;2.60;99.90
10472;DHT22;5283;48.876;8.962;2022-12-07T01:59:28;2.70;99.90
10472;DHT22;5283;48.876;8.962;2022-12-07T02:01:55;2.60;99.90
10472;DHT22;5283;48.876;8.962;2022-12-07T02:04:23;2.70;99.90
10472;DHT22;5283;48.876;8.962;2022-12-07T02:06:50;2.70;99.90
10472;DHT22;5283;48.876;8.962;2022-12-07T02:09:18;2.70;99.90
10472;DHT22;5283;48.876;8.962;2022-12-07T02:11:44;2.70;99.90
10472;DHT22;5283;48.876;8.962;2022-12-07T02:14:11;2.60;99.90
10472;DHT22;5283;48.876;8.962;2022-12-07T02:28:26;2.60;99.90
10472;DHT22;5283;48.876;8.962;2022-12-07T02:30:55;2.50;99.90
10472;DHT22;5283;48.876;8.962;2022-12-07T02:33:29;2.50;99.90
10472;DHT22;5283;48.876;8.962;2022-12-07T02:36:36;2.50;99.90
10472;DHT22;5283;48.876;8.962;2022-12-07T02:39:33;2.50;99.90
10472;DHT22;5283;48.876;8.962;2022-12-07T02:42:07;2.40;99.90
10472;DHT22;5283;48.876;8.962;2022-12-07T02:44:36;2.30;99.90
10472;DHT22;5283;48.876;8.962;2022-12-07T02:47:06;2.30;99.90
10472;DHT22;5283;48.876;8.962;2022-12-07T02:49:36;2.20;99.90
10472;DHT22;5283;48.876;8.962;2022-12-07T02:52:03;2.00;99.90
10472;DHT22;5283;48.876;8.962;2022-12-07T02:54:30;1.90;99.90
10472;DHT22;5283;48.876;8.962;2022-12-07T03:02:53;1.70;99.90
10472;DHT22;5283;48.876;8.962;2022-12-07T03:06:04;1.60;99.90
10472;DHT22;5283;48.876;8.962;2022-12-07T03:11:24;1.60;99.90
10472;DHT22;5283;48.876;8.962;2022-12-07T03:14:13;1.70;99.90
10472;DHT22;5283;48.876;8.962;2022-12-07T03:16:57;1.80;99.90
10472;DHT22;5283;48.876;8.962;2022-12-07T03:19:27;1.90;99.90
10472;DHT22;5283;48.876;8.962;2022-12-07T03:22:00;1.90;99.90
10472;DHT22;5283;48.876;8.962;2022-12-07T03:24:51;2.00;99.90
10472;DHT22;5283;48.876;8.962;2022-12-07T03:27:22;2.10;99.90
10472;DHT22;5283;48.876;8.962;2022-12-07T03:29:54;2.20;99.90
10472;DHT22;5283;48.876;8.962;2022-12-07T03:32:31;2.20;99.90
10472;DHT22;5283;48.876;8.962;2022-12-07T03:37:37;2.30;99.90
10472;DHT22;5283;48.876;8.962;2022-12-07T03:42:33;2.30;99.90
10472;DHT22;5283;48.876;8.962;2022-12-07T03:45:01;2.30;99.90
10472;DHT22;5283;48.876;8.962;2022-12-07T03:47:42;2.30;99.90
10472;DHT22;5283;48.876;8.962;2022-12-07T03:50:29;2.20;99.90
10472;DHT22;5283;48.876;8.962;2022-12-07T03:53:07;2.20;99.90
10472;DHT22;5283;48.876;8.962;2022-12-07T03:55:37;2.20;99.90
10472;DHT22;5283;48.876;8.962;2022-12-07T03:58:09;2.20;99.90
10472;DHT22;5283;48.876;8.962;2022-12-07T04:00:37;2.20;99.90
10472;DHT22;5283;48.876;8.962;2022-12-07T04:03:04;2.20;99.90
10472;DHT22;5283;48.876;8.962;2022-12-07T04:05:30;2.10;99.90
10472;DHT22;5283;48.876;8.962;2022-12-07T04:07:57;2.10;99.90
10472;DHT22;5283;48.876;8.962;2022-12-07T04:10:24;2.10;99.90
10472;DHT22;5283;48.876;8.962;2022-12-07T04:12:50;2.10;99.90
10472;DHT22;5283;48.876;8.962;2022-12-07T04:15:17;2.00;99.90
10472;DHT22;5283;48.876;8.962;2022-12-07T04:17:44;2.00;99.90
10472;DHT22;5283;48.876;8.962;2022-12-07T04:20:11;2.00;99.90
10472;DHT22;5283;48.876;8.962;2022-12-07T04:22:38;1.90;99.90
10472;DHT22;5283;48.876;8.962;2022-12-07T04:25:06;1.80;99.90
10472;DHT22;5283;48.876;8.962;2022-12-07T04:27:32;1.70;99.90
10472;DHT22;5283;48.876;8.962;2022-12-07T04:29:59;1.60;99.90
10472;DHT22;5283;48.876;8.962;2022-12-07T04:32:26;1.60;99.90
10472;DHT22;5283;48.876;8.962;2022-12-07T04:34:53;1.60;99.90
10472;DHT22;5283;48.876;8.962;2022-12-07T04:37:21;1.70;99.90
10472;DHT22;5283;48.876;8.962;2022-12-07T04:39:48;1.70;99.90
10472;DHT22;5283;48.876;8.962;2022-12-07T04:42:14;1.70;99.90
10472;DHT22;5283;48.876;8.962;2022-12-07T04:44:41;1.60;99.90
10472;DHT22;5283;48.876;8.962;2022-12-07T04:47:08;1.60;99.90
10472;DHT22;5283;48.876;8.962;2022-12-07T04:49:35;1.60;99.90
10472;DHT22;5283;48.876;8.962;2022-12-07T04:52:01;1.60;99.90
10472;DHT22;5283;48.876;8.962;2022-12-07T04:54:28;1.60;99.90
10472;DHT22;5283;48.876;8.962;2022-12-07T04:56:55;1.50;99.90
10472;DHT22;5283;48.876;8.962;2022-12-07T04:59:21;1.50;99.90
10472;DHT22;5283;48.876;8.962;2022-12-07T05:01:48;1.40;99.90
10472;DHT22;5283;48.876;8.962;2022-12-07T05:04:15;1.20;99.90
10472;DHT22;5283;48.876;8.962;2022-12-07T05:06:42;1.00;99.90
10472;DHT22;5283;48.876;8.962;2022-12-07T05:09:09;0.90;99.90
10472;DHT22;5283;48.876;8.962;2022-12-07T05:11:36;0.80;99.90
10472;DHT22;5283;48.876;8.962;2022-12-07T05:16:38;0.70;99.90
10472;DHT22;5283;48.876;8.962;2022-12-07T05:19:05;0.60;99.90
10472;DHT22;5283;48.876;8.962;2022-12-07T05:21:32;0.60;99.90
10472;DHT22;5283;48.876;8.962;2022-12-07T05:23:59;0.50;99.90
10472;DHT22;5283;48.876;8.962;2022-12-07T05:26:27;0.50;99.90
10472;DHT22;5283;48.876;8.962;2022-12-07T05:28:55;0.50;99.90
10472;DHT22;5283;48.876;8.962;2022-12-07T05:31:23;0.50;99.90
10472;DHT22;5283;48.876;8.962;2022-12-07T05:33:50;0.60;99.90
10472;DHT22;5283;48.876;8.962;2022-12-07T05:36:17;0.60;99.90
10472;DHT22;5283;48.876;8.962;2022-12-07T05:38:43;0.50;99.90
10472;DHT22;5283;48.876;8.962;2022-12-07T05:41:13;0.50;99.90
10472;DHT22;5283;48.876;8.962;2022-12-07T05:44:00;0.50;99.90
10472;DHT22;5283;48.876;8.962;2022-12-07T05:46:27;0.50;99.90
10472;DHT22;5283;48.876;8.962;2022-12-07T05:48:53;0.50;99.90
10472;DHT22;5283;48.876;8.962;2022-12-07T05:51:20;0.60;99.90
10472;DHT22;5283;48.876;8.962;2022-12-07T05:53:47;0.60;99.90
10472;DHT22;5283;48.876;8.962;2022-12-07T05:56:14;0.70;99.90
10472;DHT22;5283;48.876;8.962;2022-12-07T05:58:40;0.80;99.90
10472;DHT22;5283;48.876;8.962;2022-12-07T06:01:26;0.70;99.90
10472;DHT22;5283;48.876;8.962;2022-12-07T06:03:53;0.80;99.90
10472;DHT22;5283;48.876;8.962;2022-12-07T06:06:19;0.80;99.90
10472;DHT22;5283;48.876;8.962;2022-12-07T06:08:46;0.80;99.90
10472;DHT22;5283;48.876;8.962;2022-12-07T06:11:13;0.90;99.90
10472;DHT22;5283;48.876;8.962;2022-12-07T06:13:58;0.90;99.90
10472;DHT22;5283;48.876;8.962;2022-12-07T06:16:25;0.90;99.90
10472;DHT22;5283;48.876;8.962;2022-12-07T06:18:51;0.80;99.90
10472;DHT22;5283;48.876;8.962;2022-12-07T06:21:18;0.80;99.90
10472;DHT22;5283;48.876;8.962;2022-12-07T06:23:45;0.80;99.90
10472;DHT22;5283;48.876;8.962;2022-12-07T06:26:12;0.80;99.90
10472;DHT22;5283;48.876;8.962;2022-12-07T06:28:38;0.80;99.90
10472;DHT22;5283;48.876;8.962;2022-12-07T06:31:05;1.00;99.90
10472;DHT22;5283;48.876;8.962;2022-12-07T06:33:35;1.10;99.90
10472;DHT22;5283;48.876;8.962;2022-12-07T06:36:01;1.10;99.90
10472;DHT22;5283;48.876;8.962;2022-12-07T06:38:28;1.30;99.90
10472;DHT22;5283;48.876;8.962;2022-12-07T06:40:55;1.50;99.90
10472;DHT22;5283;48.876;8.962;2022-12-07T06:43:21;1.60;99.90
10472;DHT22;5283;48.876;8.962;2022-12-07T06:45:48;1.60;99.90
10472;DHT22;5283;48.876;8.962;2022-12-07T06:48:15;1.60;99.90
10472;DHT22;5283;48.876;8.962;2022-12-07T06:50:44;1.60;99.90
10472;DHT22;5283;48.876;8.962;2022-12-07T06:53:14;1.80;99.90
10472;DHT22;5283;48.876;8.962;2022-12-07T06:55:42;2.00;99.90
10472;DHT22;5283;48.876;8.962;2022-12-07T06:58:08;2.00;99.90
10472;DHT22;5283;48.876;8.962;2022-12-07T07:00:35;2.00;99.90
10472;DHT22;5283;48.876;8.962;2022-12-07T07:03:02;2.10;99.90
10472;DHT22;5283;48.876;8.962;2022-12-07T07:05:29;2.10;99.90
10472;DHT22;5283;48.876;8.962;2022-12-07T07:07:55;2.10;99.90
10472;DHT22;5283;48.876;8.962;2022-12-07T07:10:42;2.10;99.90
10472;DHT22;5283;48.876;8.962;2022-12-07T07:13:09;2.10;99.90
10472;DHT22;5283;48.876;8.962;2022-12-07T07:15:37;2.10;99.90
10472;DHT22;5283;48.876;8.962;2022-12-07T07:18:04;2.10;99.90
10472;DHT22;5283;48.876;8.962;2022-12-07T07:20:33;2.00;99.90
10472;DHT22;5283;48.876;8.962;2022-12-07T07:22:59;2.00;99.90
10472;DHT22;5283;48.876;8.962;2022-12-07T07:25:26;2.00;99.90
10472;DHT22;5283;48.876;8.962;2022-12-07T07:27:53;1.90;99.90
10472;DHT22;5283;48.876;8.962;2022-12-07T07:30:20;1.90;99.90
10472;DHT22;5283;48.876;8.962;2022-12-07T07:32:46;1.90;99.90
10472;DHT22;5283;48.876;8.962;2022-12-07T07:35:13;2.00;99.90
10472;DHT22;5283;48.876;8.962;2022-12-07T07:37:40;2.00;99.90
10472;DHT22;5283;48.876;8.962;2022-12-07T07:40:09;2.00;99.90
10472;DHT22;5283;48.876;8.962;2022-12-07T07:42:35;2.10;99.90
10472;DHT22;5283;48.876;8.962;2022-12-07T07:45:02;2.20;99.90
10472;DHT22;5283;48.876;8.962;2022-12-07T07:47:29;2.20;99.90
10472;DHT22;5283;48.876;8.962;2022-12-07T07:49:56;2.30;99.90
10472;DHT22;5283;48.876;8.962;2022-12-07T07:52:23;2.30;99.90
10472;DHT22;5283;48.876;8.962;2022-12-07T07:54:50;2.40;99.90
10472;DHT22;5283;48.876;8.962;2022-12-07T07:57:17;2.40;99.90
10472;DHT22;5283;48.876;8.962;2022-12-07T07:59:44;2.40;99.90
10472;DHT22;5283;48.876;8.962;2022-12-07T08:02:15;2.40;99.90
10472;DHT22;5283;48.876;8.962;2022-12-07T08:04:43;2.40;99.90
10472;DHT22;5283;48.876;8.962;2022-12-07T08:07:10;2.40;99.90
10472;DHT22;5283;48.876;8.962;2022-12-07T08:09:37;2.50;99.90
10472;DHT22;5283;48.876;8.962;2022-12-07T08:12:04;2.60;99.90
10472;DHT22;5283;48.876;8.962;2022-12-07T08:14:31;2.70;99.90
10472;DHT22;5283;48.876;8.962;2022-12-07T08:16:58;2.70;99.90
10472;DHT22;5283;48.876;8.962;2022-12-07T08:19:25;2.80;99.90
10472;DHT22;5283;48.876;8.962;2022-12-07T08:21:52;2.80;99.90
10472;DHT22;5283;48.876;8.962;2022-12-07T08:24:18;2.90;99.90
10472;DHT22;5283;48.876;8.962;2022-12-07T08:26:45;3.00;99.90
10472;DHT22;5283;48.876;8.962;2022-12-07T08:29:12;3.10;99.90
10472;DHT22;5283;48.876;8.962;2022-12-07T08:31:38;3.20;99.90
10472;DHT22;5283;48.876;8.962;2022-12-07T08:34:06;3.30;99.90
10472;DHT22;5283;48.876;8.962;2022-12-07T08:36:32;3.40;99.90
10472;DHT22;5283;48.876;8.962;2022-12-07T08:38:59;3.50;99.90
10472;DHT22;5283;48.876;8.962;2022-12-07T08:41:46;3.60;99.90
10472;DHT22;5283;48.876;8.962;2022-12-07T08:44:13;3.70;99.90
10472;DHT22;5283;48.876;8.962;2022-12-07T08:46:49;3.90;99.90
10472;DHT22;5283;48.876;8.962;2022-12-07T08:49:22;3.90;99.90
10472;DHT22;5283;48.876;8.962;2022-12-07T08:51:50;3.90;99.90
10472;DHT22;5283;48.876;8.962;2022-12-07T08:54:18;4.10;99.90
10472;DHT22;5283;48.876;8.962;2022-12-07T08:56:46;4.20;99.90
10472;DHT22;5283;48.876;8.962;2022-12-07T08:59:15;4.30;99.90
10472;DHT22;5283;48.876;8.962;2022-12-07T09:01:43;4.40;99.90
10472;DHT22;5283;48.876;8.962;2022-12-07T09:04:10;4.50;99.90
10472;DHT22;5283;48.876;8.962;2022-12-07T09:06:38;4.50;99.90
10472;DHT22;5283;48.876;8.962;2022-12-07T09:09:06;4.60;99.90
10472;DHT22;5283;48.876;8.962;2022-12-07T09:11:33;4.70;99.90
10472;DHT22;5283;48.876;8.962;2022-12-07T09:14:00;4.80;99.90
10472;DHT22;5283;48.876;8.962;2022-12-07T09:16:26;4.90;99.90
10472;DHT22;5283;48.876;8.962;2022-12-07T09:18:53;4.90;99.90
10472;DHT22;5283;48.876;8.962;2022-12-07T09:21:20;4.90;99.90
10472;DHT22;5283;48.876;8.962;2022-12-07T09:23:46;4.70;99.90
10472;DHT22;5283;48.876;8.962;2022-12-07T09:26:13;4.70;99.90
10472;DHT22;5283;48.876;8.962;2022-12-07T09:28:40;4.50;99.90
10472;DHT22;5283;48.876;8.962;2022-12-07T09:31:06;4.20;99.90
10472;DHT22;5283;48.876;8.962;2022-12-07T09:33:54;4.10;99.90
10472;DHT22;5283;48.876;8.962;2022-12-07T09:36:20;4.10;99.90
10472;DHT22;5283;48.876;8.962;2022-12-07T09:38:47;4.10;99.90
10472;DHT22;5283;48.876;8.962;2022-12-07T09:41:14;4.10;99.90
10472;DHT22;5283;48.876;8.962;2022-12-07T09:43:42;4.20;99.90
10472;DHT22;5283;48.876;8.962;2022-12-07T09:46:15;4.30;99.90
10472;DHT22;5283;48.876;8.962;2022-12-07T09:48:43;4.40;99.90
10472;DHT22;5283;48.876;8.962;2022-12-07T09:51:17;4.50;99.90
10472;DHT22;5283;48.876;8.962;2022-12-07T09:53:49;4.50;99.90
10472;DHT22;5283;48.876;8.962;2022-12-07T09:56:17;4.60;99.90
10472;DHT22;5283;48.876;8.962;2022-12-07T09:58:45;4.60;99.90
10472;DHT22;5283;48.876;8.962;2022-12-07T10:01:15;4.60;99.90
10472;DHT22;5283;48.876;8.962;2022-12-07T10:06:15;4.50;99.90
10472;DHT22;5283;48.876;8.962;2022-12-07T10:08:42;4.50;99.90
10472;DHT22;5283;48.876;8.962;2022-12-07T10:11:10;4.30;99.90
10472;DHT22;5283;48.876;8.962;2022-12-07T10:13:45;4.30;99.90
10472;DHT22;5283;48.876;8.962;2022-12-07T10:16:38;4.10;99.90
10472;DHT22;5283;48.876;8.962;2022-12-07T10:19:26;4.10;99.90
10472;DHT22;5283;48.876;8.962;2022-12-07T10:22:13;4.30;99.90
10472;DHT22;5283;48.876;8.962;2022-12-07T10:24:42;4.50;99.90
10472;DHT22;5283;48.876;8.962;2022-12-07T10:27:22;4.60;99.90
10472;DHT22;5283;48.876;8.962;2022-12-07T10:29:53;4.70;99.90
10472;DHT22;5283;48.876;8.962;2022-12-07T10:34:46;4.50;99.90
10472;DHT22;5283;48.876;8.962;2022-12-07T10:37:20;4.60;99.90
10472;DHT22;5283;48.876;8.962;2022-12-07T10:39:49;4.50;99.90
10472;DHT22;5283;48.876;8.962;2022-12-07T10:45:16;4.30;99.90
10472;DHT22;5283;48.876;8.962;2022-12-07T10:47:51;4.30;99.90
10472;DHT22;5283;48.876;8.962;2022-12-07T10:59:11;4.10;99.90
10472;DHT22;5283;48.876;8.962;2022-12-07T11:01:43;4.20;99.90
10472;DHT22;5283;48.876;8.962;2022-12-07T11:07:18;4.30;99.90
10472;DHT22;5283;48.876;8.962;2022-12-07T11:12:47;4.50;99.90
10472;DHT22;5283;48.876;8.962;2022-12-07T11:15:26;4.40;99.90
10472;DHT22;5283;48.876;8.962;2022-12-07T11:18:03;4.30;99.90
10472;DHT22;5283;48.876;8.962;2022-12-07T11:23:41;4.30;99.90
10472;DHT22;5283;48.876;8.962;2022-12-07T11:35:24;4.30;99.90
10472;DHT22;5283;48.876;8.962;2022-12-07T11:38:00;4.20;99.90
10472;DHT22;5283;48.876;8.962;2022-12-07T11:40:34;4.30;99.90
10472;DHT22;5283;48.876;8.962;2022-12-07T11:43:31;4.40;99.90
10472;DHT22;5283;48.876;8.962;2022-12-07T11:46:12;4.40;99.90
10472;DHT22;5283;48.876;8.962;2022-12-07T11:48:47;4.30;99.90
10472;DHT22;5283;48.876;8.962;2022-12-07T11:51:16;4.20;99.90
10472;DHT22;5283;48.876;8.962;2022-12-07T11:53:54;4.30;99.90
10472;DHT22;5283;48.876;8.962;2022-12-07T11:56:25;4.30;99.90
10472;DHT22;5283;48.876;8.962;2022-12-07T11:59:20;4.40;99.90
10472;DHT22;5283;48.876;8.962;2022-12-07T12:01:57;4.60;99.90
10472;DHT22;5283;48.876;8.962;2022-12-07T12:05:03;4.80;99.90
10472;DHT22;5283;48.876;8.962;2022-12-07T12:07:33;4.80;99.90
10472;DHT22;5283;48.876;8.962;2022-12-07T12:10:42;4.70;99.90
10472;DHT22;5283;48.876;8.962;2022-12-07T12:19:01;4.40;99.90
10472;DHT22;5283;48.876;8.962;2022-12-07T12:21:31;4.30;99.90
10472;DHT22;5283;48.876;8.962;2022-12-07T12:24:31;4.30;99.90
10472;DHT22;5283;48.876;8.962;2022-12-07T12:27:07;4.40;99.90
10472;DHT22;5283;48.876;8.962;2022-12-07T12:29:37;4.40;99.90
10472;DHT22;5283;48.876;8.962;2022-12-07T12:32:11;4.40;99.90
10472;DHT22;5283;48.876;8.962;2022-12-07T12:45:28;4.30;99.90
10472;DHT22;5283;48.876;8.962;2022-12-07T12:48:27;4.40;99.90
10472;DHT22;5283;48.876;8.962;2022-12-07T12:51:37;4.40;99.90
10472;DHT22;5283;48.876;8.962;2022-12-07T12:54:10;4.40;99.90
10472;DHT22;5283;48.876;8.962;2022-12-07T12:59:37;4.30;99.90
10472;DHT22;5283;48.876;8.962;2022-12-07T13:02:32;4.30;99.90
10472;DHT22;5283;48.876;8.962;2022-12-07T13:05:14;4.40;99.90
10472;DHT22;5283;48.876;8.962;2022-12-07T13:16:35;4.90;99.90
10472;DHT22;5283;48.876;8.962;2022-12-07T13:18:42;5.00;99.90
10472;DHT22;5283;48.876;8.962;2022-12-07T13:29:20;4.70;99.90
10472;DHT22;5283;48.876;8.962;2022-12-07T13:34:30;4.80;99.90
10472;DHT22;5283;48.876;8.962;2022-12-07T13:37:00;4.70;99.90
10472;DHT22;5283;48.876;8.962;2022-12-07T13:39:28;4.70;99.90
10472;DHT22;5283;48.876;8.962;2022-12-07T13:41:57;4.60;99.90
10472;DHT22;5283;48.876;8.962;2022-12-07T13:44:26;4.50;99.90
10472;DHT22;5283;48.876;8.962;2022-12-07T13:52:26;4.40;99.90
10472;DHT22;5283;48.876;8.962;2022-12-07T13:54:59;4.40;99.90
10472;DHT22;5283;48.876;8.962;2022-12-07T13:57:29;4.50;99.90
10472;DHT22;5283;48.876;8.962;2022-12-07T13:59:57;4.40;99.90
10472;DHT22;5283;48.876;8.962;2022-12-07T14:02:29;4.40;99.90
10472;DHT22;5283;48.876;8.962;2022-12-07T14:05:29;4.50;99.90
10472;DHT22;5283;48.876;8.962;2022-12-07T14:07:58;4.50;99.90
10472;DHT22;5283;48.876;8.962;2022-12-07T14:10:34;4.50;99.90
10472;DHT22;5283;48.876;8.962;2022-12-07T14:13:03;4.30;99.90
10472;DHT22;5283;48.876;8.962;2022-12-07T14:15:52;4.20;99.90
10472;DHT22;5283;48.876;8.962;2022-12-07T14:18:30;4.20;99.90
10472;DHT22;5283;48.876;8.962;2022-12-07T14:21:05;4.30;99.90
10472;DHT22;5283;48.876;8.962;2022-12-07T14:23:32;4.30;99.90
10472;DHT22;5283;48.876;8.962;2022-12-07T14:26:08;4.30;99.90
10472;DHT22;5283;48.876;8.962;2022-12-07T14:28:37;4.30;99.90
10472;DHT22;5283;48.876;8.962;2022-12-07T14:31:11;4.30;99.90
10472;DHT22;5283;48.876;8.962;2022-12-07T14:33:42;4.20;99.90
10472;DHT22;5283;48.876;8.962;2022-12-07T14:36:13;4.30;99.90
10472;DHT22;5283;48.876;8.962;2022-12-07T14:38:40;4.10;99.90
10472;DHT22;5283;48.876;8.962;2022-12-07T14:41:17;3.90;99.90
10472;DHT22;5283;48.876;8.962;2022-12-07T14:44:11;3.80;99.90
10472;DHT22;5283;48.876;8.962;2022-12-07T14:46:57;3.70;99.90
10472;DHT22;5283;48.876;8.962;2022-12-07T14:49:44;3.60;99.90
10472;DHT22;5283;48.876;8.962;2022-12-07T14:52:20;3.50;99.90
10472;DHT22;5283;48.876;8.962;2022-12-07T14:55:14;3.40;99.90
10472;DHT22;5283;48.876;8.962;2022-12-07T14:57:42;3.40;99.90
10472;DHT22;5283;48.876;8.962;2022-12-07T15:00:14;3.30;99.90
10472;DHT22;5283;48.876;8.962;2022-12-07T15:02:41;3.20;99.90
10472;DHT22;5283;48.876;8.962;2022-12-07T15:05:08;3.20;99.90
10472;DHT22;5283;48.876;8.962;2022-12-07T15:07:38;3.20;99.90
10472;DHT22;5283;48.876;8.962;2022-12-07T15:10:08;3.10;99.90
10472;DHT22;5283;48.876;8.962;2022-12-07T15:12:39;3.00;99.90
10472;DHT22;5283;48.876;8.962;2022-12-07T15:15:06;3.00;99.90
10472;DHT22;5283;48.876;8.962;2022-12-07T15:17:33;3.10;99.90
10472;DHT22;5283;48.876;8.962;2022-12-07T15:19:59;3.10;99.90
10472;DHT22;5283;48.876;8.962;2022-12-07T15:22:26;3.20;99.90
10472;DHT22;5283;48.876;8.962;2022-12-07T15:24:53;3.20;99.90
10472;DHT22;5283;48.876;8.962;2022-12-07T15:27:20;3.20;99.90
10472;DHT22;5283;48.876;8.962;2022-12-07T15:29:46;3.20;99.90
10472;DHT22;5283;48.876;8.962;2022-12-07T15:32:13;3.20;99.90
10472;DHT22;5283;48.876;8.962;2022-12-07T15:34:40;3.20;99.90
10472;DHT22;5283;48.876;8.962;2022-12-07T15:37:07;3.20;99.90
10472;DHT22;5283;48.876;8.962;2022-12-07T15:39:36;3.10;99.90
10472;DHT22;5283;48.876;8.962;2022-12-07T15:42:03;3.10;99.90
10472;DHT22;5283;48.876;8.962;2022-12-07T15:44:30;3.10;99.90
10472;DHT22;5283;48.876;8.962;2022-12-07T15:47:15;3.10;99.90
10472;DHT22;5283;48.876;8.962;2022-12-07T15:49:42;3.10;99.90
10472;DHT22;5283;48.876;8.962;2022-12-07T15:52:09;3.10;99.90
10472;DHT22;5283;48.876;8.962;2022-12-07T15:54:36;3.10;99.90
10472;DHT22;5283;48.876;8.962;2022-12-07T15:57:02;3.10;99.90
10472;DHT22;5283;48.876;8.962;2022-12-07T15:59:29;3.10;99.90
10472;DHT22;5283;48.876;8.962;2022-12-07T16:01:56;3.10;99.90
10472;DHT22;5283;48.876;8.962;2022-12-07T16:04:23;3.10;99.90
10472;DHT22;5283;48.876;8.962;2022-12-07T16:06:50;3.10;99.90
10472;DHT22;5283;48.876;8.962;2022-12-07T16:09:18;3.10;99.90
10472;DHT22;5283;48.876;8.962;2022-12-07T16:11:44;3.10;99.90
10472;DHT22;5283;48.876;8.962;2022-12-07T16:14:11;3.00;99.90
10472;DHT22;5283;48.876;8.962;2022-12-07T16:16:38;3.00;99.90
10472;DHT22;5283;48.876;8.962;2022-12-07T16:19:06;3.00;99.90
10472;DHT22;5283;48.876;8.962;2022-12-07T16:21:34;3.00;99.90
10472;DHT22;5283;48.876;8.962;2022-12-07T16:24:02;3.00;99.90
10472;DHT22;5283;48.876;8.962;2022-12-07T16:26:29;3.00;99.90
10472;DHT22;5283;48.876;8.962;2022-12-07T16:28:55;3.00;99.90
10472;DHT22;5283;48.876;8.962;2022-12-07T16:31:24;3.00;99.90
10472;DHT22;5283;48.876;8.962;2022-12-07T16:33:56;3.00;99.90
10472;DHT22;5283;48.876;8.962;2022-12-07T16:36:23;3.00;99.90
10472;DHT22;5283;48.876;8.962;2022-12-07T16:39:05;3.00;99.90
10472;DHT22;5283;48.876;8.962;2022-12-07T16:41:32;3.00;99.90
10472;DHT22;5283;48.876;8.962;2022-12-07T16:44:04;3.00;99.90
10472;DHT22;5283;48.876;8.962;2022-12-07T16:46:32;2.90;99.90
10472;DHT22;5283;48.876;8.962;2022-12-07T16:48:59;2.90;99.90
10472;DHT22;5283;48.876;8.962;2022-12-07T16:51:26;2.80;99.90
10472;DHT22;5283;48.876;8.962;2022-12-07T16:53:53;2.80;99.90
10472;DHT22;5283;48.876;8.962;2022-12-07T16:56:21;2.80;99.90
10472;DHT22;5283;48.876;8.962;2022-12-07T16:58:48;2.80;99.90
10472;DHT22;5283;48.876;8.962;2022-12-07T17:01:18;2.80;99.90
10472;DHT22;5283;48.876;8.962;2022-12-07T17:03:46;2.80;99.90
10472;DHT22;5283;48.876;8.962;2022-12-07T17:06:14;2.80;99.90
10472;DHT22;5283;48.876;8.962;2022-12-07T17:08:42;2.80;99.90
10472;DHT22;5283;48.876;8.962;2022-12-07T17:11:20;2.80;99.90
10472;DHT22;5283;48.876;8.962;2022-12-07T17:13:48;2.80;99.90
10472;DHT22;5283;48.876;8.962;2022-12-07T17:16:34;2.80;99.90
10472;DHT22;5283;48.876;8.962;2022-12-07T17:19:06;2.80;99.90
10472;DHT22;5283;48.876;8.962;2022-12-07T17:21:33;2.80;99.90
10472;DHT22;5283;48.876;8.962;2022-12-07T17:24:03;2.70;99.90
10472;DHT22;5283;48.876;8.962;2022-12-07T17:26:30;2.70;99.90
10472;DHT22;5283;48.876;8.962;2022-12-07T17:29:00;2.70;99.90
10472;DHT22;5283;48.876;8.962;2022-12-07T17:31:27;2.70;99.90
10472;DHT22;5283;48.876;8.962;2022-12-07T17:33:54;2.70;99.90
10472;DHT22;5283;48.876;8.962;2022-12-07T17:36:24;2.60;99.90
10472;DHT22;5283;48.876;8.962;2022-12-07T17:38:51;2.60;99.90
10472;DHT22;5283;48.876;8.962;2022-12-07T17:41:20;2.60;99.90
10472;DHT22;5283;48.876;8.962;2022-12-07T17:44:07;2.60;99.90
10472;DHT22;5283;48.876;8.962;2022-12-07T17:46:35;2.60;99.90
10472;DHT22;5283;48.876;8.962;2022-12-07T17:49:03;2.60;99.90
10472;DHT22;5283;48.876;8.962;2022-12-07T17:51:30;2.60;99.90
10472;DHT22;5283;48.876;8.962;2022-12-07T17:54:16;2.60;99.90
10472;DHT22;5283;48.876;8.962;2022-12-07T17:56:43;2.60;99.90
10472;DHT22;5283;48.876;8.962;2022-12-07T17:59:10;2.60;99.90
10472;DHT22;5283;48.876;8.962;2022-12-07T18:01:37;2.60;99.90
10472;DHT22;5283;48.876;8.962;2022-12-07T18:04:04;2.60;99.90
10472;DHT22;5283;48.876;8.962;2022-12-07T18:06:31;2.60;99.90
10472;DHT22;5283;48.876;8.962;2022-12-07T18:08:59;2.60;99.90
10472;DHT22;5283;48.876;8.962;2022-12-07T18:11:26;2.70;99.90
10472;DHT22;5283;48.876;8.962;2022-12-07T18:13:52;2.70;99.90
10472;DHT22;5283;48.876;8.962;2022-12-07T18:16:22;2.70;99.90
10472;DHT22;5283;48.876;8.962;2022-12-07T18:18:50;2.80;99.90